This is the latest recevied weather packets stored in our database for station/object OE-5019. If no packets are shown the sender has not sent any weather packets the latest 10 day(s).
| Time | Temp. | Humidity | Pressure | Rain* | Wind** | Luminosity | Snow |
|---|---|---|---|---|---|---|---|
| 1787919073 | 26.67° C | 56% | 1009.3 hPa | - | - | - | - |
| 1787917272 | 28.89° C | 46% | 1008.4 hPa | - | - | - | - |
| 1787915472 | 27.78° C | 51% | 1008.8 hPa | - | - | - | - |
| 1787913673 | 26.67° C | 56% | 1009.5 hPa | - | - | - | - |
| 1787911873 | 25° C | 60% | 1011.3 hPa | - | - | - | - |
| 1787910073 | 22.78° C | 68% | 1012.3 hPa | - | - | - | - |
| 1787908272 | 21.11° C | 71% | 1014 hPa | - | - | - | - |
| 1787906472 | 19.44° C | 76% | 1014.8 hPa | - | - | - | - |
| 1787904673 | 17.78° C | 80% | 1016.6 hPa | - | - | - | - |
| 1787902872 | 16.67° C | 85% | 1016 hPa | - | - | - | - |
| 1787901072 | 16.11° C | 85% | 1017.4 hPa | - | - | - | - |
| 1787899272 | 15.56° C | 87% | 1017.6 hPa | - | - | - | - |
| 1787897472 | 14.44° C | 92% | 1018.2 hPa | - | - | - | - |
| 1787895672 | 13.33° C | 93% | 1018.8 hPa | - | - | - | - |
| 1787893873 | 12.78° C | 93% | 1019.1 hPa | - | - | - | - |
| 1787892072 | 12.78° C | 93% | 1019 hPa | - | - | - | - |
| 1787890272 | 12.78° C | 92% | 1019.1 hPa | - | - | - | - |
| 1787886672 | 13.33° C | 91% | 1018.7 hPa | - | - | - | - |
| 1787884873 | 13.33° C | 90% | 1018.7 hPa | - | - | - | - |
| 1787883073 | 14.44° C | 90% | 1018.3 hPa | - | - | - | - |
| 1787881273 | 14.44° C | 90% | 1018.3 hPa | - | - | - | - |
| 1787879472 | 14.44° C | 89% | 1018.2 hPa | - | - | - | - |
| 1787877672 | 15° C | 88% | 1018 hPa | - | - | - | - |
| 1787875872 | 15.56° C | 87% | 1017.8 hPa | - | - | - | - |
| 1787874072 | 15.56° C | 87% | 1018.9 hPa | - | - | - | - |
* Rain since midnight (hover to see other rain measurements)
** Current wind speed in m/s (hover to see current wind gust speed)